Time;durP1;ratioP1;P1;durP2;ratioP2;P2;SDS_P1;SDS_P2;PMS_P1;PMS_P2;Temp;Humidity;BMP_temperature;BMP_pressure;BME280_temperature;BME280_humidity;BME280_pressure;Samples;Min_cycle;Max_cycle;Signal;HPM_P1;HPM_P2
2023/11/04 00:00:58;;;;;;;18.10;11.50;;;;;;;16.28;91.92;97923.15;109705;1251;75510;-61
2023/11/04 00:03:41;;;;;;;18.90;12.50;;;;;;;16.25;91.96;97924.52;109505;1252;67487;-61
2023/11/04 00:06:08;;;;;;;19.90;12.10;;;;;;;15.97;94.25;97921.23;109565;1252;72628;-63
2023/11/04 00:08:35;;;;;;;20.10;13.40;;;;;;;16.08;94.71;97928.59;109576;1250;61621;-63
2023/11/04 00:11:02;;;;;;;25.10;16.30;;;;;;;16.30;93.85;97918.52;109665;1251;59619;-60
2023/11/04 00:13:29;;;;;;;19.00;13.40;;;;;;;16.34;93.63;97914.79;109649;1251;74355;-60
2023/11/04 00:15:56;;;;;;;24.90;13.50;;;;;;;16.31;93.76;97921.18;109628;1251;68776;-60
2023/11/04 00:18:22;;;;;;;20.70;15.70;;;;;;;16.33;94.33;97920.37;109687;1251;72565;-63
2023/11/04 00:20:49;;;;;;;24.70;16.50;;;;;;;16.47;93.79;97920.60;109603;1251;59773;-58
2023/11/04 00:23:18;;;;;;;21.50;13.80;;;;;;;16.36;94.34;97921.17;109661;1250;59987;-59
2023/11/04 00:25:45;;;;;;;22.60;14.80;;;;;;;16.39;94.68;97916.03;109536;1250;73775;-59
2023/11/04 00:28:12;;;;;;;22.70;12.20;;;;;;;16.39;94.57;97912.79;109642;1250;67516;-60
2023/11/04 00:30:39;;;;;;;23.30;12.90;;;;;;;16.16;96.06;97905.09;109644;1251;72541;-61
2023/11/04 00:33:06;;;;;;;17.50;12.20;;;;;;;16.19;96.69;97908.99;109654;1251;60477;-61
2023/11/04 00:35:33;;;;;;;20.00;9.90;;;;;;;16.25;96.85;97917.23;109662;1250;59660;-62
2023/11/04 00:38:00;;;;;;;23.40;16.20;;;;;;;16.27;96.90;97905.48;109674;1251;74149;-61
2023/11/04 00:40:27;;;;;;;18.60;11.80;;;;;;;16.50;95.33;97916.05;109581;1251;67268;-64
2023/11/04 00:42:53;;;;;;;25.30;15.60;;;;;;;16.35;96.49;97913.89;109686;1250;71278;-64
2023/11/04 00:45:20;;;;;;;31.00;15.90;;;;;;;16.40;96.50;97922.58;109547;1252;60948;-61
2023/11/04 00:47:47;;;;;;;22.60;13.30;;;;;;;16.58;95.54;97933.73;109619;1251;59793;-60
2023/11/04 00:50:16;;;;;;;21.50;13.40;;;;;;;16.58;95.29;97936.92;109683;1250;75281;-61
2023/11/04 00:52:47;;;;;;;24.50;14.60;;;;;;;16.53;95.84;97927.30;109665;1250;67580;-61
2023/11/04 00:55:14;;;;;;;25.90;14.10;;;;;;;16.43;96.84;97927.42;109546;1250;72468;-62
2023/11/04 00:57:40;;;;;;;28.00;16.60;;;;;;;16.40;97.39;97921.98;109636;1250;61856;-61
2023/11/04 01:00:09;;;;;;;26.90;17.60;;;;;;;16.73;95.26;97914.84;109401;1250;59645;-60
2023/11/04 01:02:36;;;;;;;25.00;17.00;;;;;;;16.60;95.94;97911.21;109473;1252;74261;-61
2023/11/04 01:05:03;;;;;;;23.00;13.50;;;;;;;16.64;96.03;97920.80;109500;1252;68404;-63
2023/11/04 01:07:30;;;;;;;28.50;16.00;;;;;;;16.54;97.05;97920.77;109382;1252;71285;-60
2023/11/04 01:09:57;;;;;;;27.20;16.60;;;;;;;16.39;98.01;97915.19;109592;1250;60518;-61
2023/11/04 01:12:24;;;;;;;25.20;16.40;;;;;;;16.57;97.24;97916.36;109653;1250;60015;-60
2023/11/04 01:14:51;;;;;;;25.70;17.20;;;;;;;16.66;96.33;97909.81;109679;1250;74132;-60
2023/11/04 01:17:18;;;;;;;29.00;18.10;;;;;;;16.82;95.54;97915.25;109653;1252;68752;-60
2023/11/04 01:19:45;;;;;;;30.00;17.90;;;;;;;16.85;94.61;97911.55;109692;1250;71752;-61
2023/11/04 01:22:11;;;;;;;31.80;19.90;;;;;;;16.74;95.88;97907.77;109630;1250;60619;-60
2023/11/04 01:24:42;;;;;;;28.10;17.10;;;;;;;16.91;94.80;97897.00;109581;1250;60317;-59
2023/11/04 01:27:09;;;;;;;23.30;16.00;;;;;;;17.04;93.86;97897.52;109602;1250;75474;-60
2023/11/04 01:29:35;;;;;;;30.30;18.10;;;;;;;17.00;93.98;97887.30;109647;1250;68771;-60
2023/11/04 01:32:02;;;;;;;31.40;19.90;;;;;;;17.01;94.03;97893.13;109416;1250;71246;-60
2023/11/04 01:34:29;;;;;;;26.30;16.40;;;;;;;16.94;94.75;97903.19;109648;1254;61023;-60
2023/11/04 01:36:56;;;;;;;36.00;22.50;;;;;;;17.03;94.28;97912.09;109596;1250;59857;-60
2023/11/04 01:39:22;;;;;;;27.40;17.10;;;;;;;17.19;93.08;97915.83;109701;1250;75529;-60
2023/11/04 01:41:49;;;;;;;27.70;16.90;;;;;;;17.23;92.99;97908.34;109419;1250;67982;-61
2023/11/04 01:44:16;;;;;;;39.20;20.20;;;;;;;17.17;93.18;97908.54;109650;1250;71449;-60
2023/11/04 01:46:42;;;;;;;32.10;18.70;;;;;;;17.21;93.07;97914.72;109533;1250;61577;-60
2023/11/04 01:49:10;;;;;;;34.10;20.80;;;;;;;17.32;92.48;97906.45;109639;1250;59803;-61
2023/11/04 01:51:36;;;;;;;29.40;17.90;;;;;;;17.31;92.64;97885.44;109736;1250;75401;-60
2023/11/04 01:54:03;;;;;;;28.90;18.10;;;;;;;17.16;93.58;97869.92;109626;1250;68898;-61
2023/11/04 01:56:33;;;;;;;19.50;12.60;;;;;;;17.25;93.33;97879.75;109615;1250;71147;-61
2023/11/04 01:58:59;;;;;;;24.50;14.70;;;;;;;17.05;94.74;97891.65;109263;1250;60437;-60
2023/11/04 02:01:26;;;;;;;26.70;15.10;;;;;;;17.03;95.34;97900.16;109461;1251;60378;-61
2023/11/04 02:03:53;;;;;;;24.30;16.50;;;;;;;17.15;94.59;97908.38;109710;1251;75560;-61
2023/11/04 02:06:20;;;;;;;28.20;17.80;;;;;;;17.15;94.67;97913.13;109569;1252;68805;-62
2023/11/04 02:08:47;;;;;;;36.50;22.00;;;;;;;17.11;94.84;97916.10;109579;1251;72445;-62
2023/11/04 02:11:13;;;;;;;39.50;23.50;;;;;;;17.43;92.80;97942.69;109608;1251;61808;-64
2023/11/04 02:13:40;;;;;;;29.90;19.30;;;;;;;17.49;92.40;97939.87;109666;1251;59753;-61
2023/11/04 02:16:07;;;;;;;29.60;15.40;;;;;;;17.51;92.01;97941.95;109682;1251;75455;-62
2023/11/04 02:18:34;;;;;;;34.70;21.00;;;;;;;17.32;93.79;97936.78;109627;1251;68679;-62
2023/11/04 02:21:01;;;;;;;33.80;20.00;;;;;;;17.34;94.01;97938.61;109374;1251;71325;-62
2023/11/04 02:23:27;;;;;;;26.90;13.40;;;;;;;17.29;94.29;97927.11;109649;1251;61635;-63
2023/11/04 02:25:54;;;;;;;35.90;17.90;;;;;;;17.17;95.69;97917.22;109591;1253;59717;-64
2023/11/04 02:28:21;;;;;;;32.60;20.20;;;;;;;17.26;95.58;97915.80;109692;1251;73980;-62
2023/11/04 02:30:48;;;;;;;33.10;21.10;;;;;;;17.23;96.02;97909.04;109644;1250;68786;-61
2023/11/04 02:33:15;;;;;;;26.50;15.60;;;;;;;17.38;95.38;97907.67;109660;1251;72100;-62
2023/11/04 02:35:42;;;;;;;32.50;16.70;;;;;;;17.19;96.92;97914.16;109587;1251;60643;-63
2023/11/04 02:38:09;;;;;;;25.10;14.70;;;;;;;17.27;96.48;97922.11;109647;1253;59812;-65
2023/11/04 02:40:36;;;;;;;25.50;13.80;;;;;;;17.06;98.46;97919.01;109675;1251;73287;-59
2023/11/04 02:43:02;;;;;;;34.10;22.00;;;;;;;17.25;97.51;97917.31;109587;1251;67786;-59
2023/11/04 02:45:29;;;;;;;34.70;18.50;;;;;;;17.15;98.47;97918.65;109638;1251;72652;-59
2023/11/04 02:47:56;;;;;;;36.70;22.70;;;;;;;17.25;98.16;97915.88;109598;1251;62026;-59
2023/11/04 02:50:23;;;;;;;35.80;21.30;;;;;;;17.37;97.59;97904.77;109662;1251;59769;-62
2023/11/04 02:52:49;;;;;;;35.90;21.50;;;;;;;17.20;98.93;97889.82;109705;1251;74657;-60
2023/11/04 02:55:16;;;;;;;31.30;20.70;;;;;;;17.16;99.44;97886.28;109633;1252;67437;-62
2023/11/04 02:57:42;;;;;;;37.20;20.10;;;;;;;16.94;100.00;97879.51;109674;1251;70751;-59
2023/11/04 03:00:10;;;;;;;33.30;18.40;;;;;;;17.02;100.00;97882.58;109635;1251;60749;-60
2023/11/04 03:02:37;;;;;;;24.20;15.30;;;;;;;17.03;100.00;97885.14;109637;1252;60106;-61
2023/11/04 03:05:04;;;;;;;33.70;20.00;;;;;;;16.88;100.00;97881.63;109583;1252;75500;-64
2023/11/04 03:07:31;;;;;;;32.70;20.10;;;;;;;17.04;100.00;97894.95;109598;1252;67227;-60
2023/11/04 03:09:58;;;;;;;25.40;14.90;;;;;;;16.88;100.00;97901.73;109759;1251;71867;-60
2023/11/04 03:12:24;;;;;;;31.00;16.70;;;;;;;16.88;100.00;97912.98;109710;1250;61843;-60
2023/11/04 03:14:51;;;;;;;31.90;18.50;;;;;;;17.13;100.00;97906.55;109740;1251;59766;-61
2023/11/04 03:17:18;;;;;;;35.10;19.30;;;;;;;17.14;100.00;97909.84;109691;1251;75459;-60
2023/11/04 03:19:45;;;;;;;37.10;21.30;;;;;;;17.52;99.16;97924.39;109763;1251;68649;-60
2023/11/04 03:22:12;;;;;;;28.50;17.00;;;;;;;17.45;98.85;97926.42;109520;1250;72636;-60
2023/11/04 03:24:43;;;;;;;40.40;19.80;;;;;;;17.33;99.94;97929.27;109724;1251;60705;-62
2023/11/04 03:27:12;;;;;;;42.40;21.40;;;;;;;17.21;100.00;97931.61;109751;1250;60382;-64
2023/11/04 03:29:39;;;;;;;42.30;24.00;;;;;;;17.31;99.87;97928.49;109787;1250;75347;-63
2023/11/04 03:32:06;;;;;;;38.50;22.30;;;;;;;17.51;99.25;97930.08;109647;1251;68686;-60
2023/11/04 03:34:33;;;;;;;34.70;19.50;;;;;;;17.54;98.98;97936.45;109726;1251;71225;-63
2023/11/04 03:37:02;;;;;;;29.80;14.80;;;;;;;17.66;98.33;97942.27;109705;1250;61647;-60
2023/11/04 03:39:30;;;;;;;38.50;19.70;;;;;;;17.63;98.44;97937.74;109746;1251;60122;-62
2023/11/04 03:41:57;;;;;;;39.70;23.60;;;;;;;17.67;98.07;97936.34;109375;1250;75483;-63
2023/11/04 03:44:23;;;;;;;39.60;23.30;;;;;;;17.72;97.83;97939.21;109776;1250;67546;-62
2023/11/04 03:46:50;;;;;;;30.20;18.60;;;;;;;17.78;97.42;97940.54;109643;1251;72679;-64
2023/11/04 03:49:17;;;;;;;40.10;22.20;;;;;;;17.84;96.96;97931.77;109739;1251;60852;-63
2023/11/04 03:51:44;;;;;;;35.70;19.90;;;;;;;17.83;97.14;97920.46;109784;1251;60020;-61
2023/11/04 03:54:10;;;;;;;36.70;20.90;;;;;;;17.98;96.16;97921.64;109557;1251;75503;-61
2023/11/04 03:56:37;;;;;;;36.50;20.90;;;;;;;17.79;97.49;97916.63;109753;1251;67279;-62
2023/11/04 03:59:04;;;;;;;37.70;22.60;;;;;;;17.81;97.63;97917.46;109772;1250;73978;-61
2023/11/04 04:01:38;;;;;;;40.10;22.00;;;;;;;17.98;96.36;97911.35;109725;1251;61650;-59
2023/11/04 04:04:05;;;;;;;38.80;20.20;;;;;;;17.79;97.77;97901.76;109646;1252;60235;-59
2023/11/04 04:06:31;;;;;;;36.80;21.20;;;;;;;17.58;99.11;97903.33;109630;1251;73737;-60
2023/11/04 04:08:58;;;;;;;39.20;20.50;;;;;;;17.49;99.99;97913.77;109396;1253;68746;-61
2023/11/04 04:11:25;;;;;;;36.10;19.90;;;;;;;17.73;99.14;97921.96;109548;1253;71629;-62
2023/11/04 04:13:51;;;;;;;37.60;21.40;;;;;;;17.78;98.40;97920.64;109611;1254;61950;-60
2023/11/04 04:16:18;;;;;;;48.20;21.70;;;;;;;17.53;99.87;97918.46;109633;1252;59721;-60
2023/11/04 04:18:45;;;;;;;36.40;19.40;;;;;;;17.49;100.00;97917.84;109566;1253;75619;-60
2023/11/04 04:21:15;;;;;;;39.60;21.10;;;;;;;17.52;100.00;97918.80;109623;1253;67360;-59
2023/11/04 04:23:43;;;;;;;40.70;23.20;;;;;;;17.66;99.95;97916.06;109603;1252;72638;-58
2023/11/04 04:26:16;;;;;;;45.20;23.10;;;;;;;17.69;99.91;97907.41;109582;1252;61858;-59
2023/11/04 04:28:42;;;;;;;39.20;20.90;;;;;;;17.56;100.00;97904.29;109614;1252;60230;-60
2023/11/04 04:31:09;;;;;;;40.50;22.00;;;;;;;17.46;100.00;97904.61;109609;1253;74312;-59
2023/11/04 04:33:35;;;;;;;33.60;20.90;;;;;;;17.55;100.00;97914.02;109546;1252;150285;-59
2023/11/04 04:36:03;;;;;;;46.10;23.40;;;;;;;17.64;100.00;97908.40;109651;1252;73118;-59
2023/11/04 04:38:30;;;;;;;35.30;22.50;;;;;;;17.64;100.00;97913.22;109621;1251;60588;-59
2023/11/04 04:40:57;;;;;;;39.30;20.10;;;;;;;17.78;99.92;97914.06;109623;1252;60193;-60
2023/11/04 04:43:24;;;;;;;34.50;19.90;;;;;;;17.98;99.07;97913.17;109439;1253;73982;-60
2023/11/04 04:45:50;;;;;;;37.80;22.10;;;;;;;17.82;99.63;97907.10;109344;1252;68107;-60
2023/11/04 04:48:18;;;;;;;37.80;22.30;;;;;;;17.91;99.52;97898.47;109391;1251;72054;-60
2023/11/04 04:50:45;;;;;;;37.70;21.90;;;;;;;17.94;99.15;97893.69;109584;1252;61968;-59
2023/11/04 04:53:11;;;;;;;35.70;21.00;;;;;;;18.09;98.36;97904.06;109631;1252;60054;-61
2023/11/04 04:55:38;;;;;;;35.80;21.80;;;;;;;17.96;98.94;97905.70;109436;1252;74030;-60
2023/11/04 04:58:05;;;;;;;45.70;21.90;;;;;;;18.02;98.81;97913.30;109591;1252;68766;-62
2023/11/04 05:00:31;;;;;;;43.00;21.40;;;;;;;18.12;98.25;97919.73;109653;1252;72498;-59
2023/11/04 05:02:59;;;;;;;35.70;20.30;;;;;;;18.04;98.63;97926.17;109623;1253;62000;-63
2023/11/04 05:05:26;;;;;;;33.10;19.70;;;;;;;18.01;99.05;97936.86;109577;1252;60447;-60
2023/11/04 05:07:52;;;;;;;32.20;17.60;;;;;;;18.06;98.76;97940.02;109339;1251;73142;-60
2023/11/04 05:10:19;;;;;;;35.60;21.00;;;;;;;18.05;98.84;97941.09;109275;1252;67176;-61
2023/11/04 05:12:46;;;;;;;33.00;19.00;;;;;;;18.01;99.48;97949.48;109731;1250;71252;-60
2023/11/04 05:15:13;;;;;;;30.50;18.90;;;;;;;18.19;98.39;97954.38;109765;1250;61845;-62
2023/11/04 05:17:39;;;;;;;29.90;17.60;;;;;;;18.34;97.21;97962.27;109553;1251;60451;-60
2023/11/04 05:20:08;;;;;;;32.20;19.50;;;;;;;18.31;97.30;97959.30;109732;1250;74616;-61
2023/11/04 05:22:34;;;;;;;29.30;16.00;;;;;;;17.98;99.47;97958.33;109481;1251;68605;-62
2023/11/04 05:25:03;;;;;;;30.30;19.10;;;;;;;17.76;100.00;97952.80;109762;1251;72474;-60
2023/11/04 05:27:30;;;;;;;32.70;19.10;;;;;;;17.97;100.00;97945.82;109748;1250;60760;-63
2023/11/04 05:29:58;;;;;;;26.10;16.50;;;;;;;18.06;99.62;97955.31;109750;1250;59742;-60
2023/11/04 05:32:25;;;;;;;31.60;18.80;;;;;;;18.09;99.58;97965.33;109720;1251;75324;-60
2023/11/04 05:34:51;;;;;;;31.60;17.80;;;;;;;17.98;100.00;97971.96;109726;1251;67443;-61
2023/11/04 05:37:18;;;;;;;33.70;16.90;;;;;;;17.94;100.00;97972.09;109758;1251;71394;-60
2023/11/04 05:39:45;;;;;;;36.50;18.70;;;;;;;18.01;99.98;97972.01;109769;1251;61728;-63
2023/11/04 05:42:11;;;;;;;21.80;13.90;;;;;;;18.06;99.96;97965.95;109748;1251;59990;-60
2023/11/04 05:44:38;;;;;;;30.20;18.60;;;;;;;17.92;100.00;97958.61;109573;1251;75237;-57
2023/11/04 05:47:05;;;;;;;27.90;13.90;;;;;;;18.03;100.00;97957.39;109609;1252;67586;-59
2023/11/04 05:49:31;;;;;;;29.70;17.80;;;;;;;17.88;100.00;97959.97;109403;1251;72518;-61
2023/11/04 05:51:58;;;;;;;26.60;16.80;;;;;;;17.79;100.00;97969.53;109628;1252;62065;-61
2023/11/04 05:54:24;;;;;;;36.10;19.50;;;;;;;17.81;100.00;97973.21;109646;1251;59708;-60
2023/11/04 05:56:51;;;;;;;33.80;19.40;;;;;;;17.99;100.00;97972.24;109634;1253;75466;-59
2023/11/04 05:59:18;;;;;;;29.30;19.10;;;;;;;17.99;100.00;97974.10;109637;1251;68513;-59
2023/11/04 06:01:45;;;;;;;31.40;18.20;;;;;;;17.91;100.00;97979.69;109669;1251;72569;-59
2023/11/04 06:04:11;;;;;;;24.70;12.80;;;;;;;18.07;100.00;97974.33;109627;1252;60417;-59
2023/11/04 06:06:38;;;;;;;27.60;17.80;;;;;;;18.05;100.00;97967.77;109628;1252;60172;-59
2023/11/04 06:09:05;;;;;;;31.80;17.80;;;;;;;18.13;100.00;97977.23;109641;1251;75318;-58
2023/11/04 06:11:33;;;;;;;26.90;18.20;;;;;;;18.04;100.00;97967.56;109772;1251;67988;-59
2023/11/04 06:13:59;;;;;;;28.20;17.20;;;;;;;18.16;100.00;97964.08;109390;1251;72480;-60
2023/11/04 06:16:32;;;;;;;29.10;17.90;;;;;;;18.22;100.00;97963.92;109771;1251;61658;-59
2023/11/04 06:18:59;;;;;;;32.10;19.10;;;;;;;18.24;100.00;97953.05;109536;1251;60307;-60
2023/11/04 06:21:26;;;;;;;30.60;17.40;;;;;;;18.36;99.99;97948.20;109772;1252;75455;-59
2023/11/04 06:23:53;;;;;;;32.40;19.50;;;;;;;18.44;99.81;97946.58;109511;1251;67422;-60
2023/11/04 06:26:23;;;;;;;32.00;17.90;;;;;;;18.32;100.00;97950.25;109795;1250;71563;-60
2023/11/04 06:28:50;;;;;;;32.00;20.70;;;;;;;18.26;100.00;97955.52;109715;1251;61682;-62
2023/11/04 06:31:19;;;;;;;34.00;19.30;;;;;;;18.35;100.00;97958.64;109747;1252;60088;-63
2023/11/04 06:33:46;;;;;;;31.90;20.10;;;;;;;18.41;100.00;97958.35;109754;1251;74033;-58
2023/11/04 06:36:13;;;;;;;32.80;20.60;;;;;;;18.41;99.98;97966.59;109801;1251;67609;-59
2023/11/04 06:38:40;;;;;;;34.40;22.60;;;;;;;18.35;100.00;97971.00;109731;1251;72376;-61
2023/11/04 06:41:16;;;;;;;35.70;20.40;;;;;;;18.47;100.00;97977.91;109751;1250;61978;-63
2023/11/04 06:43:46;;;;;;;32.50;21.70;;;;;;;18.43;100.00;97981.94;109795;1250;59753;-59
2023/11/04 06:46:12;;;;;;;32.70;20.60;;;;;;;18.36;100.00;97971.40;109812;1250;75386;-60
2023/11/04 06:48:39;;;;;;;31.60;20.10;;;;;;;18.45;100.00;97962.61;109337;1251;67210;-63
2023/11/04 06:51:06;;;;;;;34.40;20.40;;;;;;;18.29;100.00;97957.77;109745;1251;71168;-58
2023/11/04 06:53:33;;;;;;;40.10;20.80;;;;;;;18.33;100.00;97953.54;109620;1251;60458;-60
2023/11/04 06:56:00;;;;;;;29.30;18.40;;;;;;;18.31;100.00;97954.41;109511;1251;60252;-59
2023/11/04 06:58:27;;;;;;;32.90;20.20;;;;;;;18.43;100.00;97954.91;109811;1251;73712;-61
2023/11/04 07:00:54;;;;;;;39.70;22.20;;;;;;;18.43;100.00;97953.59;109763;1251;67924;-59
2023/11/04 07:03:21;;;;;;;34.10;20.00;;;;;;;18.45;100.00;97952.64;109348;1253;71353;-59
2023/11/04 07:05:48;;;;;;;37.30;21.80;;;;;;;18.47;100.00;97949.37;109593;1253;61811;-59
2023/11/04 07:08:15;;;;;;;37.40;22.10;;;;;;;18.55;100.00;97951.85;109614;1252;60160;-59
2023/11/04 07:10:42;;;;;;;36.60;21.30;;;;;;;18.52;100.00;97950.29;109770;1251;73279;-60
2023/11/04 07:13:11;;;;;;;35.30;22.90;;;;;;;18.63;100.00;97952.91;109683;1251;68635;-59
2023/11/04 07:15:44;;;;;;;39.50;22.50;;;;;;;18.62;100.00;97954.59;109761;1251;72739;-59
2023/11/04 07:18:12;;;;;;;32.20;20.20;;;;;;;18.48;100.00;97949.23;109585;1255;61996;-59
2023/11/04 07:20:39;;;;;;;;;;;;;;;18.46;100.00;97935.76;109603;1251;60115;-58
2023/11/04 07:23:13;;;;;;;40.10;19.70;;;;;;;18.57;100.00;97938.95;109735;1251;74223;-59
2023/11/04 07:25:39;;;;;;;36.40;19.70;;;;;;;18.53;100.00;97933.23;109736;1254;67325;-59
2023/11/04 07:28:06;;;;;;;39.70;21.60;;;;;;;18.59;100.00;97927.65;109782;1251;73750;-60
2023/11/04 07:30:33;;;;;;;38.90;21.40;;;;;;;18.70;100.00;97934.09;109744;1251;61904;-59
2023/11/04 07:33:00;;;;;;;39.20;22.80;;;;;;;18.69;100.00;97928.70;109767;1251;60071;-59
2023/11/04 07:35:27;;;;;;;34.30;21.40;;;;;;;18.76;100.00;97926.98;109771;1251;75146;-59
2023/11/04 07:37:56;;;;;;;41.80;21.90;;;;;;;19.01;100.00;97936.80;109570;1251;67826;-59
2023/11/04 07:40:26;;;;;;;34.80;20.90;;;;;;;19.00;100.00;97936.71;109764;1251;72562;-59
2023/11/04 07:42:53;;;;;;;32.70;20.20;;;;;;;18.94;100.00;97933.38;109563;1251;60364;-58
2023/11/04 07:45:19;;;;;;;31.70;19.60;;;;;;;18.72;100.00;97926.46;109763;1251;59960;-59
2023/11/04 07:47:46;;;;;;;32.10;16.40;;;;;;;18.57;100.00;97934.75;109331;1251;75460;-59
2023/11/04 07:50:13;;;;;;;35.00;19.70;;;;;;;18.61;100.00;97934.56;109740;1251;68585;-57
2023/11/04 07:52:42;;;;;;;29.50;19.10;;;;;;;18.76;100.00;97926.98;109702;1250;72518;-61
2023/11/04 07:55:24;;;;;;;36.30;19.80;;;;;;;18.78;100.00;97922.05;109717;1251;61816;-61
2023/11/04 07:57:51;;;;;;;30.20;16.20;;;;;;;18.81;100.00;97930.45;109325;1251;60086;-60
2023/11/04 08:00:18;;;;;;;28.00;15.80;;;;;;;18.89;100.00;97945.97;109784;1250;75288;-59
2023/11/04 08:02:45;;;;;;;32.80;17.00;;;;;;;18.94;100.00;97954.09;109729;1251;67438;-58
2023/11/04 08:05:11;;;;;;;27.30;15.80;;;;;;;18.99;100.00;97957.89;109707;1251;72696;-60
2023/11/04 08:07:38;;;;;;;32.00;16.90;;;;;;;18.84;100.00;97957.31;109428;1251;61320;-59
2023/11/04 08:10:07;;;;;;;30.60;18.40;;;;;;;18.90;100.00;97956.16;109431;1251;60280;-58
2023/11/04 08:12:33;;;;;;;33.40;19.00;;;;;;;18.84;100.00;97952.83;109719;1250;74154;-58
2023/11/04 08:15:00;;;;;;;28.20;15.90;;;;;;;19.05;100.00;97951.49;109721;1251;67419;-58
2023/11/04 08:17:27;;;;;;;29.50;18.20;;;;;;;18.95;100.00;97953.98;109716;1251;72829;-59
2023/11/04 08:19:54;;;;;;;28.30;18.60;;;;;;;19.14;100.00;97956.83;109729;1251;60872;-59
2023/11/04 08:22:20;;;;;;;27.60;17.80;;;;;;;19.18;100.00;97963.52;109779;1250;59597;-58
2023/11/04 08:24:47;;;;;;;28.20;15.50;;;;;;;19.46;100.00;97971.27;109774;1250;75395;-59
2023/11/04 08:27:14;;;;;;;28.70;15.70;;;;;;;19.18;100.00;97969.56;109773;1251;68883;-59
2023/11/04 08:29:41;;;;;;;30.10;18.00;;;;;;;18.97;100.00;97972.27;109721;1251;72629;-57
2023/11/04 08:32:08;;;;;;;28.60;17.30;;;;;;;18.85;100.00;97976.46;109454;1251;61737;-60
2023/11/04 08:34:36;;;;;;;29.70;18.20;;;;;;;18.91;100.00;97978.33;109783;1251;59788;-58
2023/11/04 08:37:03;;;;;;;27.60;15.30;;;;;;;18.93;100.00;97973.49;109734;1251;75227;-59
2023/11/04 08:39:30;;;;;;;32.70;17.70;;;;;;;18.93;100.00;97972.63;109745;1251;68810;-59
2023/11/04 08:41:56;;;;;;;30.20;16.90;;;;;;;18.84;100.00;97972.71;109710;1251;72754;-59
2023/11/04 08:44:23;;;;;;;32.30;19.60;;;;;;;18.81;100.00;97972.99;109727;1250;61576;-59
2023/11/04 08:46:51;;;;;;;35.70;20.10;;;;;;;18.88;100.00;97967.30;109770;1251;60750;-59
2023/11/04 08:49:18;;;;;;;35.30;20.90;;;;;;;19.00;100.00;97974.61;109778;1251;74328;-59
2023/11/04 08:51:45;;;;;;;33.60;19.80;;;;;;;19.16;100.00;97979.15;109779;1251;68989;-59
2023/11/04 08:54:13;;;;;;;32.20;20.80;;;;;;;19.11;100.00;97975.98;109725;1251;71443;-59
2023/11/04 08:56:42;;;;;;;35.00;21.80;;;;;;;19.09;100.00;97979.66;109594;1254;60703;-58
2023/11/04 08:59:09;;;;;;;35.20;20.10;;;;;;;19.10;100.00;97973.25;109716;1251;59684;-59
2023/11/04 09:01:35;;;;;;;33.00;19.50;;;;;;;19.00;100.00;97961.89;109768;1251;74129;-59
2023/11/04 09:04:02;;;;;;;33.10;20.00;;;;;;;18.78;100.00;97951.58;109624;1254;67874;-60
2023/11/04 09:06:35;;;;;;;37.80;22.10;;;;;;;18.71;100.00;97938.86;109569;1253;71579;-58
2023/11/04 09:09:02;;;;;;;37.50;22.20;;;;;;;18.78;100.00;97936.20;109554;1251;60659;-61
2023/11/04 09:11:28;;;;;;;38.80;21.80;;;;;;;18.91;100.00;97933.42;109685;1252;59713;-60
2023/11/04 09:13:56;;;;;;;34.50;18.90;;;;;;;18.90;100.00;97927.88;109361;1251;75356;-60
2023/11/04 09:16:23;;;;;;;37.00;19.10;;;;;;;18.85;100.00;97931.04;109670;1251;67472;-59
2023/11/04 09:18:49;;;;;;;34.40;20.00;;;;;;;18.88;100.00;97927.92;109629;1251;72495;-59
2023/11/04 09:21:16;;;;;;;44.20;23.10;;;;;;;18.90;100.00;97929.23;109628;1251;59986;-59
2023/11/04 09:23:43;;;;;;;40.20;22.90;;;;;;;19.01;100.00;97924.23;109616;1251;60247;-62
2023/11/04 09:26:11;;;;;;;;;;;;;;;19.04;100.00;97922.66;109288;1251;75211;-58
2023/11/04 09:28:38;;;;;;;38.90;21.30;;;;;;;19.05;100.00;97923.17;109701;1251;68452;-59
2023/11/04 09:31:05;;;;;;;36.40;18.00;;;;;;;19.06;100.00;97913.24;109641;1251;71525;-60
2023/11/04 09:33:34;;;;;;;37.80;20.30;;;;;;;19.05;100.00;97911.51;109639;1251;61959;-61
2023/11/04 09:36:02;;;;;;;37.70;20.70;;;;;;;19.13;100.00;97906.49;109602;1251;59924;-58
2023/11/04 09:38:29;;;;;;;34.60;20.00;;;;;;;19.10;100.00;97901.20;109333;1258;75560;-58
2023/11/04 09:40:56;;;;;;;38.70;22.80;;;;;;;19.15;100.00;97898.39;109605;1251;69665;-58
2023/11/04 09:43:22;;;;;;;36.60;21.50;;;;;;;19.24;100.00;97891.00;109600;1251;72660;-58
2023/11/04 09:45:49;;;;;;;33.60;20.20;;;;;;;19.45;100.00;97874.25;109677;1250;63039;-58
2023/11/04 09:48:17;;;;;;;33.70;19.90;;;;;;;19.47;100.00;97872.66;109616;1251;59857;-58
2023/11/04 09:50:44;;;;;;;36.50;19.60;;;;;;;19.47;100.00;97866.67;109660;1252;75378;-58
2023/11/04 09:53:25;;;;;;;28.30;17.50;;;;;;;19.55;100.00;97860.94;109368;1251;67849;-59
2023/11/04 09:55:53;;;;;;;34.60;19.30;;;;;;;19.42;100.00;97849.38;109251;1254;72692;-59
2023/11/04 09:58:19;;;;;;;29.70;20.40;;;;;;;19.48;100.00;97841.75;109379;1254;61752;-59
2023/11/04 10:00:46;;;;;;;33.40;18.80;;;;;;;19.45;100.00;97840.04;109098;1254;59817;-59
2023/11/04 10:03:13;;;;;;;35.60;19.50;;;;;;;19.42;100.00;97842.39;109419;1254;76643;-59
2023/11/04 10:05:40;;;;;;;28.40;17.40;;;;;;;19.54;100.00;97836.45;109378;1254;67919;-58
2023/11/04 10:08:06;;;;;;;37.00;20.80;;;;;;;19.57;100.00;97829.36;109362;1254;72597;-58
2023/11/04 10:10:34;;;;;;;31.70;18.90;;;;;;;19.51;100.00;97822.92;109271;1254;60497;-61
2023/11/04 10:13:00;;;;;;;33.60;18.70;;;;;;;19.62;100.00;97817.17;109384;1254;59917;-62
2023/11/04 10:15:27;;;;;;;30.70;19.10;;;;;;;19.81;100.00;97816.76;109247;1254;75621;-60
2023/11/04 10:17:54;;;;;;;28.60;18.50;;;;;;;19.91;100.00;97818.27;109376;1254;67392;-60
2023/11/04 10:20:21;;;;;;;35.80;19.50;;;;;;;20.04;99.91;97819.64;109373;1254;71264;-58
2023/11/04 10:22:48;;;;;;;30.90;18.30;;;;;;;19.96;99.94;97813.48;109270;1258;61880;-60
2023/11/04 10:25:15;;;;;;;27.30;17.10;;;;;;;19.77;100.00;97805.39;109390;1254;60616;-59
2023/11/04 10:27:42;;;;;;;30.70;18.70;;;;;;;19.87;100.00;97806.77;109528;1251;73460;-59
2023/11/04 10:30:09;;;;;;;31.10;19.40;;;;;;;19.91;100.00;97810.50;109583;1251;68638;-60
2023/11/04 10:32:37;;;;;;;35.00;17.10;;;;;;;20.00;100.00;97808.27;109570;1252;72673;-58
2023/11/04 10:35:07;;;;;;;31.60;19.20;;;;;;;20.00;100.00;97800.87;109476;1254;60550;-59
2023/11/04 10:37:33;;;;;;;25.50;17.10;;;;;;;20.17;99.96;97800.28;109491;1252;59607;-59
2023/11/04 10:40:07;;;;;;;34.20;19.30;;;;;;;20.22;99.94;97804.98;109250;1254;75112;-59
2023/11/04 10:42:48;;;;;;;25.80;17.40;;;;;;;20.17;99.59;97804.80;109358;1254;67306;-59
2023/11/04 10:45:23;;;;;;;27.20;17.30;;;;;;;20.19;98.98;97805.22;109182;1254;71252;-59
2023/11/04 10:47:56;;;;;;;26.00;15.30;;;;;;;20.12;99.07;97806.17;109282;1254;60782;-59
2023/11/04 10:50:31;;;;;;;25.30;15.90;;;;;;;20.03;99.39;97813.70;109393;1254;59869;-60
2023/11/04 10:53:07;;;;;;;23.50;15.10;;;;;;;19.91;100.00;97815.49;109234;1254;74285;-59
2023/11/04 10:55:43;;;;;;;25.80;15.80;;;;;;;19.98;100.00;97816.87;109402;1254;67239;-60
2023/11/04 10:58:14;;;;;;;30.20;15.80;;;;;;;20.00;99.79;97815.11;109330;1254;72660;-59
2023/11/04 11:00:40;;;;;;;24.10;14.50;;;;;;;20.08;99.46;97821.52;109137;1254;61127;-59
2023/11/04 11:03:08;;;;;;;27.30;16.90;;;;;;;20.14;99.08;97817.89;109346;1254;60251;-59
2023/11/04 11:05:35;;;;;;;29.50;17.60;;;;;;;20.06;99.93;97810.83;109272;1254;75501;-59
2023/11/04 11:08:03;;;;;;;20.80;15.50;;;;;;;19.93;100.00;97798.63;109160;1254;66744;-60